Huntsville Municipal Airport
KUTS : now visible

Airfield :











YOU CAN JOIN US ON...

 
LOGIN :

Register | Disclaimer

   EN    FR    IT 

 









Legend :    VFR   Marginal VFR   IFR   Intensive IFR   Very Intensive IFR
Visi :
Ceiling :
>= 8 km
>= 3000ft
5 to 8 km
1000 to 3000 ft
1500m to 5 km
500 to 1000 ft
800 to 1500m
200 to 500 ft
< 800m
< 200 ft
Symbols :   Thunderstorms  Fog  Heavy snow  Heavy precipitations  Wind > 20 kt






- Airport Elevation : 363 ft


KUTS - Huntsville Municipal

CURRENT METAR :
  • 290453Z AUTO 13004KT 10SM CLR 22/19 A3006 RMK AO2 SLP173 T02220189

EXPIRED METARs :
  • 290353Z AUTO 09005KT 10SM CLR 22/19 A3001 RMK AO2 SLP158 T02220189
  • 290253Z AUTO 07003KT 10SM CLR 22/20 A3000 RMK AO2 SLP153 T02220200 50017
  • 290153Z AUTO 06003KT 10SM CLR 23/20 A3001 RMK AO2 SLP158 T02330200
  • 290053Z AUTO 05004KT 10SM CLR 24/20 A2999 RMK AO2 SLP152 T02440200

TAF KUTS
Valid from the 29 at 00:00 until the 30 at 00:00 UTC


282320Z 2900/2924 VRB04KT P6SM SCT250
FM290800 VRB04KT 6SM BR VCTS BKN015 OVC020CB
FM291500 VRB05KT P6SM SCT020 BKN025
FM291700 VRB05KT P6SM SCT030 BKN040
FM292100 VRB05KT P6SM VCTS SCT045CB
KZHU FIR / North America



MET'MAP, your aeronautical weather chart ! - Copyright ORBIFLY December 2007 - Disclaimer

ORBIFLY MET'MAP TEAM :

Programming & Development : Alexandra Zaïnal
Original concept : Baudouin d'Aumeries
Technical & hardware support : Manuel Goepfert
Assistance : Marc-Olivier Méhu




SOURCES & CREDITS :

   NOAA       Earth
Advisory